This is the latest recevied weather packets stored in our database for station/object N4CRH-13. If no packets are shown the sender has not sent any weather packets the latest 10 day(s).
| Time | Temp. | Humidity | Pressure | Rain* | Wind** | Luminosity | Snow |
|---|---|---|---|---|---|---|---|
| 1777426934 | 7.22° C | 60% | 1296.4 hPa | 0 mm | - | 5 W/m² | - |
| 1777426631 | 7.78° C | 59% | 1296.4 hPa | 0 mm | - | 7 W/m² | - |
| 1777426327 | 7.78° C | 58% | 1296.4 hPa | 0 mm | - | 9 W/m² | - |
| 1777426023 | 8.33° C | 57% | 1296 hPa | 0 mm | - | 11 W/m² | - |
| 1777425717 | 8.33° C | 55% | 1296.2 hPa | 0 mm | - | 11 W/m² | - |
| 1777425412 | 8.89° C | 53% | 1296.2 hPa | 0 mm | - | 16 W/m² | - |
| 1777425109 | 9.44° C | 51% | 1295.9 hPa | 0 mm | - | 28 W/m² | - |
| 1777424806 | 10° C | 50% | 1295.9 hPa | 0 mm | - | 36 W/m² | - |
| 1777424501 | 10° C | 48% | 1295.9 hPa | 0 mm | - | 45 W/m² | - |
| 1777424197 | 10° C | 48% | 1295.7 hPa | 0 mm | - | 54 W/m² | - |
| 1777423894 | 10° C | 49% | 1295.7 hPa | 0 mm | - | 62 W/m² | - |
| 1777423591 | 9.44° C | 49% | 1295.7 hPa | 0 mm | - | 54 W/m² | - |
| 1777423286 | 9.44° C | 50% | 1295.8 hPa | 0 mm | - | 38 W/m² | - |
| 1777422981 | 10° C | 47% | 1295.6 hPa | 0 mm | - | 56 W/m² | - |
| 1777422676 | 10.56° C | 48% | 1295.7 hPa | 0 mm | - | 64 W/m² | - |
| 1777422371 | 10.56° C | 47% | 1295.4 hPa | 0 mm | - | 75 W/m² | - |
| 1777422066 | 10.56° C | 47% | 1295.4 hPa | 0 mm | - | 105 W/m² | - |
| 1777421761 | 10.56° C | 47% | 1295.4 hPa | 0 mm | - | 106 W/m² | - |
| 1777421456 | 11.67° C | 45% | 1295.1 hPa | 0 mm | - | 94 W/m² | - |
| 1777421153 | 11.11° C | 45% | 1295.1 hPa | 0 mm | - | 139 W/m² | - |
| 1777420850 | 11.11° C | 45% | 1294.8 hPa | 0 mm | - | 145 W/m² | - |
| 1777420546 | 10.56° C | 48% | 1295 hPa | 0 mm | - | 129 W/m² | - |
| 1777420242 | 10.56° C | 47% | 1295 hPa | 0 mm | - | 164 W/m² | - |
| 1777419937 | 10.56° C | 49% | 1295.1 hPa | 0 mm | - | 183 W/m² | - |
| 1777419635 | 10.56° C | 48% | 1294.8 hPa | 0 mm | - | 136 W/m² | - |
* Rain latest hour (hover to see other rain measurements)
** Current wind speed in m/s (hover to see current wind gust speed)